Terminal Aerodrome Forecast
Issued by NWS Billings, MT

Home | Current Version | Previous Version | Graphics & Text | Print | Product List | Glossary On
Versions: 1 2 3 4 5 6 7 8 9 10 11 12 13 14 15 16 17 18
000
FTUS45 KBYZ 210531
TAFMLS
TAF
KMLS 210531Z 2106/2206 19005KT P6SM OVC110 WS020/27040KT
     FM211500 17007KT 5SM -RA SCT015 OVC050
     FM211800 22007KT P6SM OVC050
     FM220000 27012KT P6SM BKN100=

USA.gov is the U.S. government's official web portal to all federal, state and local government web resources and services.